Main page
METAR-TAF:

METAR-TAF

Airports :

Zaporizhia International Airport

Zaporizhia, Ukraine

latitude: 47-52-02N, longitude: 035-18-59E, elevation: 114 m

Current weather observation

The report was made 23 minutes ago, at 13:30 UTC
Wind 6 kt from the North/Northwest, varying between Northwest and North
Temperature 7°C
Humidity 49%
Pressure 1015 hPa
Visibility 10 km or more
no clouds below 1500 m and no cumulonimbus

METAR: UKDE 291330Z 34003MPS 310V010 CAVOK 07/M03 Q1015 R02R/210370 NOSIG

Time: 15:53 (13:53 UTC)

Forecast

The report was made 2 hours and 52 minutes ago, at 11:01 UTC
Forecast valid from 29 at 12 UTC to 29 at 21 UTC
Wind 6 kt from the North/Northwest
Visibility 10 km or more
Scattered clouds at a height of 3000 ft
Temporary
from 29 at 18 UTC to 29 at 21 UTC
Visibility: 3100 m
Broken clouds at a height of 700 ft
mist

TAF: UKDE 291101Z 2912/2921 33003MPS 9999 SCT030 TX08/2912Z TN00/2921Z TEMPO 2918/2921 3100 BR BKN007

Weather observations and forecasts of more than 4000 airports (METAR and TAF reports).

The available stations are represented by yellow and red dots on the map.

Hover mouse over dot to see the name of the station.

Then click to see weather observations and forecasts.

To change the map : click on the green buttons with a black cross to zoom in, on the green button with a dash to zoom out, or on the green arrows for adjacent maps.


METAR-TAF: